Flight Track Log - Related Links

Times and Time Zones

All times are in EDT time to prevent confusion due to time zone crossing. See the FFT920 flight status page for this flight to view local times or setup timezone preferences in your user account.

Time Position Orientation Groundspeed Altitude Reporting Facility
EDT Latitude Longitude Course Direction KTS MPH feet Rate Location/Type
Sun 04:59:22 PM 35.8610 -78.8190 228° Southwest 155 178 1,900  Level FlightAware ADS-B
Sun 04:59:47 PM 35.8520 -78.8400 242° Southwest 189 217 2,500 1,527 Climbing FlightAware ADS-B
Sun 05:00:17 PM 35.8700 -78.8660 311° West 224 258 3,300 2,291 Climbing FlightAware ADS-B
Sun 05:00:42 PM 35.8970 -78.8620 North 236 272 4,600 3,382 Climbing FlightAware ADS-B
Sun 05:01:12 PM 35.9270 -78.8460 23° Northeast 229 264 6,400 3,200 Climbing FlightAware ADS-B
Sun 05:01:42 PM 35.9530 -78.8330 22° Northeast 231 266 7,800 2,700 Climbing FlightAware ADS-B
Sun 05:01:52 PM 35.9660 -78.8260 24° Northeast 243 280 8,200 1,886 Climbing FlightAware ADS-B
Sun 05:02:17 PM 35.9940 -78.8110 23° Northeast 262 302 8,900 2,027 Climbing FlightAware ADS-B
Sun 05:03:06 PM 36.0600 -78.7770 23° Northeast 316 364 10,700 1,888 Climbing FlightAware ADS-B
Sun 05:03:46 PM 36.1160 -78.7480 23° Northeast 354 407 11,700 2,049 Climbing FlightAware ADS-B
Sun 05:04:28 PM 36.1790 -78.7130 24° Northeast 366 421 13,500 2,571 Climbing FlightAware ADS-B
Sun 05:05:10 PM 36.2360 -78.6550 39° Northeast 378 435 15,300 2,386 Climbing FlightAware ADS-B
Sun 05:05:56 PM 36.2990 -78.5890 40° Northeast 392 451 17,000 2,233 Climbing FlightAware ADS-B
Sun 05:06:36 PM 36.3550 -78.5290 41° Northeast 398 458 18,500 2,175 Climbing FlightAware ADS-B
Sun 05:07:16 PM 36.4110 -78.4690 41° Northeast 404 465 19,900 1,875 Climbing FlightAware ADS-B
Sun 05:07:56 PM 36.4670 -78.4100 40° Northeast 416 479 21,000 1,977 Climbing FlightAware ADS-B
Sun 05:08:44 PM 36.5380 -78.3340 41° Northeast 415 478 22,800 2,659 Climbing FlightAware ADS-B
Sun 05:09:24 PM 36.5960 -78.2720 41° Northeast 392 451 24,900 1,333 Climbing FlightAware ADS-B
Sun 05:10:23 PM 36.6650 -78.1790 47° Northeast 422 486 25,000 64 Climbing FlightAware ADS-B
Sun 05:10:58 PM 36.7190 -78.0960 51° Northeast 464 534 25,000  Level FlightAware ADS-B
Sun 05:12:06 PM 36.8120 -77.9570 50° Northeast 465 535 25,000  Level FlightAware ADS-B
Sun 05:12:46 PM 36.8690 -77.8750 49° Northeast 464 534 25,000  Level FlightAware ADS-B
Sun 05:13:23 PM 36.9200 -77.8030 48° Northeast 467 537 25,000  Level FlightAware ADS-B
Sun 05:14:11 PM 36.9880 -77.7070 48° Northeast 469 540 25,000  Level FlightAware ADS-B
Sun 05:14:51 PM 37.0450 -77.6270 48° Northeast 471 542 25,000  Level FlightAware ADS-B
Sun 05:15:32 PM 37.1070 -77.5410 48° Northeast 475 547 25,000 -214 Level FlightAware ADS-B
Sun 05:16:15 PM 37.1720 -77.4520 47° Northeast 468 539 24,700 -456 Descending FlightAware ADS-B
Sun 05:16:51 PM 37.2230 -77.3820 48° Northeast 465 535 24,400 -500 Descending FlightAware ADS-B
Sun 05:17:39 PM 37.2940 -77.2860 47° Northeast 457 526 24,000 -457 Descending FlightAware ADS-B
Sun 05:18:23 PM 37.3560 -77.2020 47° Northeast 457 526 23,700 -500 Descending FlightAware ADS-B
Sun 05:19:03 PM 37.4160 -77.1260 45° Northeast 456 525 23,300 -553 Descending FlightAware ADS-B
Sun 05:19:39 PM 37.4710 -77.0590 44° Northeast 456 525 23,000 -468 Descending FlightAware ADS-B
Sun 05:20:20 PM 37.5330 -76.9840 44° Northeast 449 517 22,700 -512 Descending FlightAware ADS-B
Sun 05:21:01 PM 37.6030 -76.9220 35° Northeast 444 511 22,300 -795 Descending FlightAware ADS-B
Sun 05:21:43 PM 37.6740 -76.8690 31° Northeast 436 502 21,600 -1,244 Descending FlightAware ADS-B
Sun 05:22:23 PM 37.7300 -76.8260 31° Northeast 433 498 20,600 -1,380 Descending FlightAware ADS-B
Sun 05:23:23 PM 37.8320 -76.7490 31° Northeast 423 487 19,300 -1,269 Descending FlightAware ADS-B
Sun 05:24:07 PM 37.9190 -76.6830 31° Northeast 423 487 18,400 -1,143 Descending FlightAware ADS-B
Sun 05:24:47 PM 37.9860 -76.6320 31° Northeast 415 478 17,700 -929 Descending FlightAware ADS-B
Sun 05:25:31 PM 38.0560 -76.5780 31° Northeast 408 470 17,100 -904 Descending FlightAware ADS-B
Sun 05:26:00 PM 38.0960 -76.5480 31° Northeast 405 466 16,600 -1,059 Descending FlightAware ADS-B
Sun 05:26:39 PM 38.1650 -76.4950 31° Northeast 397 457 15,900 -1,000 Descending FlightAware ADS-B
Sun 05:27:24 PM 38.2350 -76.4410 31° Northeast 393 452 15,200 -978 Descending FlightAware ADS-B
Sun 05:28:11 PM 38.3070 -76.3830 32° Northeast 385 443 14,400 -966 Descending FlightAware ADS-B
Sun 05:28:51 PM 38.3640 -76.3300 36° Northeast 380 437 13,800 -951 Descending FlightAware ADS-B
Sun 05:29:33 PM 38.4240 -76.2750 36° Northeast 380 437 13,100 -471 Descending FlightAware ADS-B
Sun 05:30:33 PM 38.5100 -76.1950 36° Northeast 380 437 13,000  Descending FlightAware ADS-B
Sun 05:31:18 PM 38.5740 -76.1350 36° Northeast 379 436 13,100 68 Climbing FlightAware ADS-B
Sun 05:32:01 PM 38.6340 -76.0800 36° Northeast 380 437 13,100 -77 Level FlightAware ADS-B
Sun 05:32:36 PM 38.6850 -76.0320 36° Northeast 379 436 13,000 -81 Descending FlightAware ADS-B
Sun 05:33:15 PM 38.7330 -75.9880 36° Northeast 381 438 13,000  Level FlightAware ADS-B
Sun 05:34:00 PM 38.8050 -75.9200 36° Northeast 382 440 13,000 68 Level FlightAware ADS-B
Sun 05:34:43 PM 38.8640 -75.8640 36° Northeast 379 436 13,100  Climbing FlightAware ADS-B
Sun 05:35:27 PM 38.9280 -75.8040 36° Northeast 379 436 13,000 -286 Descending FlightAware ADS-B
Sun 05:36:07 PM 38.9840 -75.7510 36° Northeast 379 436 12,700 -450 Descending FlightAware ADS-B
Sun 05:36:47 PM 39.0410 -75.6970 36° Northeast 367 422 12,400 -545 Descending FlightAware ADS-B
Sun 05:37:02 PM 39.0630 -75.6820 28° Northeast 364 419 12,200 -327 Descending FlightAware ADS-B
Sun 05:37:42 PM 39.1290 -75.6710 North 358 412 12,100 -72 Descending FlightAware ADS-B
Sun 05:38:25 PM 39.2010 -75.6630 North 340 391 12,100 -70 Level FlightAware ADS-B
Sun 05:39:08 PM 39.2640 -75.6560 North 311 358 12,000 -103 Descending FlightAware ADS-B
Sun 05:39:23 PM 39.2870 -75.6490 13° North 314 361 12,000  Level FlightAware ADS-B
Sun 05:40:03 PM 39.3390 -75.6130 28° Northeast 316 364 12,000 71 Level FlightAware ADS-B
Sun 05:40:48 PM 39.3940 -75.5710 31° Northeast 306 352 12,100 -68 Climbing FlightAware ADS-B
Sun 05:41:31 PM 39.4470 -75.5310 30° Northeast 303 349 11,900 -651 Descending FlightAware ADS-B
Sun 05:42:11 PM 39.4960 -75.4940 30° Northeast 300 345 11,200 -1,013 Descending FlightAware ADS-B
Sun 05:42:48 PM 39.5420 -75.4590 30° Northeast 298 343 10,600 -878 Descending FlightAware ADS-B
Sun 05:43:33 PM 39.5970 -75.4170 30° Northeast 299 344 10,000 -361 Descending FlightAware ADS-B
Sun 05:44:11 PM 39.6420 -75.3770 34° Northeast 306 352 10,100 -82 Climbing FlightAware ADS-B
Sun 05:44:46 PM 39.6800 -75.3350 40° Northeast 306 352 9,900 -340 Descending FlightAware ADS-B
Sun 05:45:04 PM 39.7010 -75.3120 40° Northeast 305 351 9,800 -480 Descending FlightAware ADS-B
Sun 05:45:36 PM 39.7340 -75.2760 40° Northeast 301 346 9,500 -526 Descending FlightAware ADS-B
Sun 05:46:01 PM 39.7620 -75.2440 41° Northeast 298 343 9,300 -383 Descending FlightAware ADS-B
Sun 05:46:23 PM 39.7840 -75.2200 40° Northeast 298 343 9,200 -462 Descending FlightAware ADS-B
Sun 05:46:53 PM 39.8170 -75.1830 41° Northeast 299 344 8,900 -545 Descending FlightAware ADS-B
Sun 05:47:18 PM 39.8430 -75.1540 41° Northeast 304 350 8,700 -526 Descending FlightAware ADS-B
Sun 05:47:50 PM 39.8780 -75.1150 41° Northeast 302 348 8,400 -436 Descending FlightAware ADS-B
Sun 05:48:13 PM 39.8980 -75.0930 40° Northeast 302 348 8,300 -453 Descending FlightAware ADS-B
Sun 05:48:43 PM 39.9350 -75.0520 40° Northeast 301 346 8,000 -764 Descending FlightAware ADS-B
Sun 05:49:08 PM 39.9610 -75.0220 41° Northeast 299 344 7,600 -1,000 Descending FlightAware ADS-B
Sun 05:49:37 PM 39.9910 -74.9890 40° Northeast 298 343 7,100 -667 Descending FlightAware ADS-B
Sun 05:50:02 PM 40.0180 -74.9590 40° Northeast 293 337 7,000 -700 Descending FlightAware ADS-B
Sun 05:50:37 PM 40.0450 -74.9280 41° Northeast 285 328 6,400 -1,300 Descending FlightAware ADS-B
Sun 05:51:02 PM 40.0770 -74.8920 41° Northeast 281 323 5,700 -1,543 Descending FlightAware ADS-B
Sun 05:51:12 PM 40.0860 -74.8820 40° Northeast 277 319 5,500 -1,622 Descending FlightAware ADS-B
Sun 05:51:39 PM 40.1130 -74.8510 41° Northeast 277 319 4,700 -1,472 Descending FlightAware ADS-B
Sun 05:52:05 PM 40.1390 -74.8220 40° Northeast 261 300 4,200 -873 Descending FlightAware ADS-B
Sun 05:52:34 PM 40.1590 -74.8000 40° Northeast 252 290 3,900 -610 Descending FlightAware ADS-B
Sun 05:53:04 PM 40.1880 -74.7670 41° Northeast 224 258 3,600 -600 Descending FlightAware ADS-B

Login

Don't have an account? Register now (free) for customized features, flight alerts, and more!